Time;durP1;ratioP1;P1;durP2;ratioP2;P2;SDS_P1;SDS_P2;PMS_P1;PMS_P2;Temp;Humidity;BMP_temperature;BMP_pressure;BME280_temperature;BME280_humidity;BME280_pressure;Samples;Min_cycle;Max_cycle;Signal;HPM_P1;HPM_P2
2022/03/26 00:00:23;;;;;;;28.98;14.38;;;;;;;8.10;58.97;100953.75;5101035;28;20277;-75
2022/03/26 00:02:49;;;;;;;26.65;15.15;;;;;;;7.98;58.64;100955.53;5088895;28;20028;-75
2022/03/26 00:05:15;;;;;;;32.40;15.27;;;;;;;8.25;56.79;100955.22;5083518;28;20078;-75
2022/03/26 00:07:41;;;;;;;33.95;15.32;;;;;;;8.19;56.60;100959.19;5083211;28;20034;-76
2022/03/26 00:10:08;;;;;;;33.92;14.93;;;;;;;8.23;56.35;100960.63;5083653;28;20045;-76
2022/03/26 00:12:33;;;;;;;31.52;14.75;;;;;;;8.15;56.11;100952.44;5083304;28;20032;-75
2022/03/26 00:14:59;;;;;;;36.22;15.70;;;;;;;8.30;55.53;100963.63;5084199;28;20215;-75
2022/03/26 00:17:25;;;;;;;27.58;14.88;;;;;;;8.35;55.76;100961.53;5085855;28;20036;-74
2022/03/26 00:19:51;;;;;;;36.90;14.65;;;;;;;8.43;55.84;100959.16;5091993;28;20376;-75
2022/03/26 00:22:17;;;;;;;32.83;15.45;;;;;;;8.30;55.31;100932.81;5086278;28;20059;-74
2022/03/26 00:24:42;;;;;;;34.78;15.20;;;;;;;8.59;55.43;100972.00;5085635;28;20043;-74
2022/03/26 00:27:08;;;;;;;31.90;14.77;;;;;;;8.58;56.07;100967.69;5087593;28;20046;-74
2022/03/26 00:29:33;;;;;;;42.53;16.00;;;;;;;8.71;55.54;100967.56;5081496;28;20032;-74
2022/03/26 00:31:59;;;;;;;30.55;15.45;;;;;;;8.70;55.63;100971.16;5081652;28;20378;-75
2022/03/26 00:34:24;;;;;;;29.90;14.85;;;;;;;8.44;55.49;100938.88;5092533;28;20031;-76
2022/03/26 00:36:50;;;;;;;48.85;17.85;;;;;;;8.16;56.63;100961.22;5084223;28;20103;-76
2022/03/26 00:39:15;;;;;;;39.08;16.27;;;;;;;7.89;57.85;100962.34;5087384;28;20338;-74
2022/03/26 00:41:41;;;;;;;36.65;15.98;;;;;;;7.71;58.96;100965.50;5086388;28;20040;-75
2022/03/26 00:44:06;;;;;;;60.53;19.88;;;;;;;7.98;58.09;100959.00;5089514;28;20039;-75
2022/03/26 00:46:32;;;;;;;61.17;22.63;;;;;;;8.31;56.58;100955.59;5085518;28;20063;-75
2022/03/26 00:48:58;;;;;;;130.40;34.72;;;;;;;8.50;56.33;100957.72;5084447;28;20032;-75
2022/03/26 00:51:24;;;;;;;46.78;18.15;;;;;;;8.66;55.39;100961.81;5083445;28;20051;-75
2022/03/26 00:53:49;;;;;;;35.60;15.50;;;;;;;8.59;54.15;100964.09;5084470;28;20258;-75
2022/03/26 00:56:15;;;;;;;29.00;15.02;;;;;;;8.37;55.11;100974.63;5088810;28;20040;-75
2022/03/26 00:58:41;;;;;;;30.73;15.18;;;;;;;8.15;55.60;100975.34;5088113;28;20040;-75
2022/03/26 01:01:11;;;;;;;40.53;17.13;;;;;;;8.12;56.12;100970.31;5088536;28;20036;-76
2022/03/26 01:03:37;;;;;;;33.72;15.23;;;;;;;8.21;55.28;100977.53;5088352;28;20535;-75
2022/03/26 01:06:04;;;;;;;34.25;16.17;;;;;;;8.15;55.29;100981.47;5085190;28;20032;-76
2022/03/26 01:08:30;;;;;;;34.83;16.63;;;;;;;8.05;56.43;100979.66;5086850;28;20051;-75
2022/03/26 01:10:55;;;;;;;28.17;15.02;;;;;;;8.17;56.58;100973.44;5085341;28;20222;-75
2022/03/26 01:13:23;;;;;;;35.78;16.20;;;;;;;8.29;55.40;100985.69;5085680;28;20044;-75
2022/03/26 01:15:48;;;;;;;37.30;18.45;;;;;;;8.13;56.77;100980.75;5086687;28;20039;-75
2022/03/26 01:18:13;;;;;;;30.40;15.80;;;;;;;8.01;57.52;100984.31;5082254;28;20064;-75
2022/03/26 01:20:39;;;;;;;37.00;17.08;;;;;;;7.91;57.77;100965.69;5090510;28;20034;-75
2022/03/26 01:23:04;;;;;;;57.80;19.70;;;;;;;7.88;57.95;100983.56;5088674;28;20044;-75
2022/03/26 01:25:30;;;;;;;32.95;15.80;;;;;;;8.07;57.04;100983.00;5084048;28;20028;-75
2022/03/26 01:27:55;;;;;;;34.35;14.75;;;;;;;8.09;57.74;100989.00;5100314;28;20028;-75
2022/03/26 01:30:21;;;;;;;30.27;14.77;;;;;;;8.08;57.15;100987.34;5101452;28;20129;-76
2022/03/26 01:32:48;;;;;;;29.00;16.50;;;;;;;8.22;56.15;100995.03;5086203;28;20032;-76
2022/03/26 01:35:14;;;;;;;37.08;16.60;;;;;;;8.36;55.84;100996.69;5087826;28;20087;-75
2022/03/26 01:37:39;;;;;;;42.80;18.80;;;;;;;8.26;56.55;100999.13;5088030;28;20263;-75
2022/03/26 01:40:06;;;;;;;45.63;18.58;;;;;;;7.64;57.56;100996.75;5084403;28;20029;-75
2022/03/26 01:42:32;;;;;;;58.35;20.83;;;;;;;7.46;57.56;100959.41;5095868;28;20391;-75
2022/03/26 01:44:57;;;;;;;58.00;19.63;;;;;;;7.54;58.12;101001.84;5086457;28;20277;-75
2022/03/26 01:47:23;;;;;;;92.70;24.88;;;;;;;7.64;58.20;100994.13;5084747;28;20062;-75
2022/03/26 01:49:51;;;;;;;90.57;23.50;;;;;;;7.71;57.63;100994.50;5083040;28;20047;-74
2022/03/26 01:52:17;;;;;;;43.30;19.05;;;;;;;7.76;57.26;101005.56;5081229;28;20054;-74
2022/03/26 01:54:43;;;;;;;38.13;15.77;;;;;;;7.45;56.21;101002.53;5084276;28;20099;-75
2022/03/26 01:57:10;;;;;;;33.35;15.32;;;;;;;7.16;57.11;101003.75;5088513;28;20044;-76
2022/03/26 01:59:37;;;;;;;34.22;15.50;;;;;;;7.23;56.62;101013.75;5085548;28;20048;-76
2022/03/26 02:02:05;;;;;;;42.17;16.48;;;;;;;7.26;57.33;101013.53;5084479;28;20040;-76
2022/03/26 02:04:30;;;;;;;30.10;15.40;;;;;;;7.36;56.38;101017.22;5085601;28;20288;-75
2022/03/26 02:06:56;;;;;;;34.58;15.95;;;;;;;7.27;57.02;101015.22;5084943;28;20087;-75
2022/03/26 02:09:21;;;;;;;38.63;16.67;;;;;;;7.17;57.45;101013.34;5084590;28;20200;-75
2022/03/26 02:11:47;;;;;;;102.97;26.08;;;;;;;7.06;56.85;100987.75;5087315;28;20047;-74
2022/03/26 02:14:14;;;;;;;82.53;25.05;;;;;;;7.26;57.06;101020.59;5083789;28;20076;-74
2022/03/26 02:16:41;;;;;;;49.97;18.77;;;;;;;7.35;57.14;101012.06;5085900;28;20036;-75
2022/03/26 02:19:08;;;;;;;30.13;15.95;;;;;;;7.30;57.52;101024.72;5087417;28;20055;-75
2022/03/26 02:21:35;;;;;;;41.88;16.77;;;;;;;7.34;56.44;101024.38;5088099;28;20218;-75
2022/03/26 02:24:02;;;;;;;39.65;17.73;;;;;;;7.24;56.26;101022.50;5088514;28;20099;-74
2022/03/26 02:26:28;;;;;;;36.15;17.13;;;;;;;7.22;57.54;101025.22;5086914;28;20478;-75
2022/03/26 02:28:55;;;;;;;38.67;17.60;;;;;;;7.21;57.56;101033.25;5084228;28;20046;-76
2022/03/26 02:31:21;;;;;;;36.58;17.35;;;;;;;7.13;57.57;101025.03;5085968;28;20040;-75
2022/03/26 02:33:48;;;;;;;32.38;15.98;;;;;;;7.18;57.71;101036.94;5088873;28;20125;-74
2022/03/26 02:36:13;;;;;;;33.03;17.02;;;;;;;7.21;57.51;101035.88;5084264;28;20279;-75
2022/03/26 02:38:39;;;;;;;27.15;14.57;;;;;;;7.27;55.66;101033.66;5088675;28;20037;-75
2022/03/26 02:41:06;;;;;;;28.98;15.63;;;;;;;7.06;55.04;101022.00;5088465;28;20035;-75
2022/03/26 02:43:32;;;;;;;30.55;15.10;;;;;;;7.13;55.29;101040.84;5082687;28;20044;-75
2022/03/26 02:45:58;;;;;;;29.50;14.85;;;;;;;7.10;54.84;101044.53;5088377;28;20334;-75
2022/03/26 02:48:23;;;;;;;40.50;16.80;;;;;;;6.83;54.59;101047.31;5098146;28;20362;-75
2022/03/26 02:50:49;;;;;;;33.67;15.75;;;;;;;6.55;57.44;101047.53;5086193;28;20032;-75
2022/03/26 02:53:14;;;;;;;35.10;17.05;;;;;;;6.36;58.57;101051.41;5091296;28;20226;-76
2022/03/26 02:55:40;;;;;;;30.08;16.27;;;;;;;6.22;58.59;101029.56;5086195;28;20078;-76
2022/03/26 02:58:07;;;;;;;27.83;15.88;;;;;;;6.42;59.50;101046.69;5089890;28;20241;-75
2022/03/26 03:00:33;;;;;;;38.05;16.92;;;;;;;6.59;58.06;101052.47;5084991;28;20052;-74
2022/03/26 03:02:59;;;;;;;35.92;16.02;;;;;;;6.59;58.05;101031.41;5083842;28;20052;-74
2022/03/26 03:05:25;;;;;;;44.13;16.88;;;;;;;6.72;57.46;101044.59;5087356;28;20039;-74
2022/03/26 03:07:50;;;;;;;41.25;16.42;;;;;;;6.73;57.02;101052.38;5088431;28;20104;-75
2022/03/26 03:10:17;;;;;;;36.70;16.90;;;;;;;6.75;56.73;101036.47;5090577;28;20040;-75
2022/03/26 03:12:44;;;;;;;34.30;16.05;;;;;;;6.81;57.87;101048.38;5087516;28;20028;-74
2022/03/26 03:15:13;;;;;;;33.50;16.23;;;;;;;6.86;57.91;101043.63;5092391;28;20081;-75
2022/03/26 03:17:42;;;;;;;39.58;18.45;;;;;;;6.83;57.54;101047.31;5088285;28;20318;-75
2022/03/26 03:20:10;;;;;;;42.80;16.33;;;;;;;6.70;58.32;101025.41;5091172;28;20024;-75
2022/03/26 03:22:36;;;;;;;35.85;17.45;;;;;;;6.70;59.01;101049.94;5090548;28;20270;-74
2022/03/26 03:25:04;;;;;;;40.10;17.48;;;;;;;6.60;59.14;101042.78;5090678;28;20036;-75
2022/03/26 03:27:30;;;;;;;34.33;16.17;;;;;;;6.32;57.02;101047.28;5086154;28;20078;-74
2022/03/26 03:29:55;;;;;;;36.08;16.75;;;;;;;6.10;57.35;101049.63;5083720;28;20033;-75
2022/03/26 03:32:20;;;;;;;35.78;16.67;;;;;;;5.82;58.33;101047.09;5085376;28;20035;-74
2022/03/26 03:34:46;;;;;;;39.67;18.58;;;;;;;5.84;58.17;101053.09;5087044;28;20031;-75
2022/03/26 03:37:11;;;;;;;40.83;17.15;;;;;;;5.86;57.39;101062.56;5096749;28;20035;-74
2022/03/26 03:39:37;;;;;;;46.83;19.27;;;;;;;5.65;57.99;101053.47;5102397;28;20071;-74
2022/03/26 03:42:03;;;;;;;41.30;17.95;;;;;;;5.54;59.61;101054.16;5093326;28;20356;-74
2022/03/26 03:44:30;;;;;;;41.92;18.63;;;;;;;5.57;59.49;101064.47;5086691;28;20040;-75
2022/03/26 03:46:55;;;;;;;43.05;17.30;;;;;;;5.64;60.11;101057.88;5088285;28;20036;-75
2022/03/26 03:49:21;;;;;;;41.95;18.95;;;;;;;5.72;58.76;101062.63;5085383;28;20077;-74
2022/03/26 03:51:46;;;;;;;40.42;18.10;;;;;;;5.61;60.27;101055.44;5094315;28;20042;-74
2022/03/26 03:54:12;;;;;;;35.17;17.50;;;;;;;5.29;61.05;101019.88;5103560;28;20036;-74
2022/03/26 03:56:38;;;;;;;40.00;19.15;;;;;;;5.57;61.71;101064.47;5093875;28;20021;-74
2022/03/26 03:59:04;;;;;;;57.83;22.65;;;;;;;5.69;60.94;101061.03;5091304;28;20318;-74
2022/03/26 04:01:29;;;;;;;85.00;28.15;;;;;;;5.82;61.05;101045.31;5085298;28;20052;-74
2022/03/26 04:03:55;;;;;;;61.78;23.65;;;;;;;5.63;61.23;101052.72;5092344;28;20623;-75
2022/03/26 04:06:20;;;;;;;101.95;31.30;;;;;;;5.57;62.32;101068.88;5083177;28;20086;-75
2022/03/26 04:08:46;;;;;;;133.13;31.65;;;;;;;5.74;61.39;101073.88;5092362;28;20032;-75
2022/03/26 04:11:11;;;;;;;58.20;24.25;;;;;;;5.66;60.96;101050.72;5088139;28;20314;-75
2022/03/26 04:13:37;;;;;;;46.65;21.90;;;;;;;5.86;61.07;101062.56;5084626;28;20025;-75
2022/03/26 04:16:02;;;;;;;42.72;19.92;;;;;;;5.99;60.46;101046.88;5089334;28;20040;-74
2022/03/26 04:18:28;;;;;;;56.75;21.00;;;;;;;6.23;59.63;101060.19;5088545;28;20070;-74
2022/03/26 04:20:53;;;;;;;43.78;18.98;;;;;;;6.15;59.66;101060.69;5087729;28;20336;-74
2022/03/26 04:23:20;;;;;;;43.70;19.70;;;;;;;6.48;58.03;101073.41;5089509;28;20438;-74
2022/03/26 04:25:46;;;;;;;41.60;19.45;;;;;;;6.47;58.46;101079.63;5088866;28;20048;-74
2022/03/26 04:28:12;;;;;;;51.17;19.52;;;;;;;6.34;56.57;101060.34;5087619;28;20040;-74
2022/03/26 04:30:37;;;;;;;55.85;19.08;;;;;;;6.23;57.50;101053.13;5085942;28;20032;-74
2022/03/26 04:33:03;;;;;;;41.20;18.52;;;;;;;6.15;58.39;101073.00;5087906;28;20268;-74
2022/03/26 04:35:29;;;;;;;40.00;17.38;;;;;;;6.11;60.01;101082.03;5086572;28;20039;-76
2022/03/26 04:37:56;;;;;;;42.88;19.27;;;;;;;6.22;59.97;101087.44;5084660;28;20070;-75
2022/03/26 04:40:25;;;;;;;46.20;21.27;;;;;;;6.07;60.46;101084.88;5090739;28;20405;-74
2022/03/26 04:42:51;;;;;;;40.45;19.27;;;;;;;6.42;59.52;101097.50;5083225;28;20025;-74
2022/03/26 04:45:17;;;;;;;43.17;19.20;;;;;;;6.50;58.75;101095.22;5085837;28;20134;-75
2022/03/26 04:47:42;;;;;;;87.32;28.40;;;;;;;6.47;59.46;101108.56;5089430;28;20248;-74
2022/03/26 04:50:09;;;;;;;43.20;19.40;;;;;;;6.47;58.59;101092.78;5086153;28;20044;-75
2022/03/26 04:52:35;;;;;;;68.63;23.85;;;;;;;6.71;58.59;101109.53;5082238;28;20036;-74
2022/03/26 04:55:01;;;;;;;43.03;18.70;;;;;;;6.61;57.99;101100.59;5081018;28;20020;-74
2022/03/26 04:57:27;;;;;;;33.78;16.75;;;;;;;6.03;57.16;101117.56;5082658;28;20036;-74
2022/03/26 04:59:52;;;;;;;36.20;17.73;;;;;;;5.80;58.17;101118.19;5102403;28;20308;-74
2022/03/26 05:02:18;;;;;;;34.58;16.50;;;;;;;5.37;59.81;101120.03;5092152;28;20066;-74
2022/03/26 05:04:43;;;;;;;29.52;15.55;;;;;;;4.76;61.09;101127.19;5086912;28;20097;-75
2022/03/26 05:09:53;;;;;;;40.38;17.15;;;;;;;3.92;66.51;101122.50;5083201;28;20054;-76
2022/03/26 05:12:19;;;;;;;36.03;17.27;;;;;;;3.68;68.74;101143.88;5085884;28;20273;-77
2022/03/26 05:14:44;;;;;;;40.30;19.10;;;;;;;3.45;71.12;101112.88;5095165;28;20095;-74
2022/03/26 05:17:10;;;;;;;49.85;17.25;;;;;;;3.88;71.37;101139.31;5100743;28;20087;-74
2022/03/26 05:19:36;;;;;;;34.77;17.27;;;;;;;3.74;72.61;101146.16;5091712;28;20038;-74
2022/03/26 05:22:03;;;;;;;36.50;17.33;;;;;;;3.64;73.44;101125.78;5085690;28;20420;-74
2022/03/26 05:24:29;;;;;;;32.78;16.58;;;;;;;3.85;73.87;101142.94;5082510;28;20033;-75
2022/03/26 05:26:55;;;;;;;36.43;17.77;;;;;;;4.01;73.99;101153.44;5084822;28;20026;-73
2022/03/26 05:29:20;;;;;;;45.83;21.45;;;;;;;4.22;73.38;101148.78;5084503;28;20125;-74
2022/03/26 05:31:45;;;;;;;54.90;22.08;;;;;;;4.26;74.85;101152.91;5087073;28;20386;-74
2022/03/26 05:34:11;;;;;;;44.67;21.83;;;;;;;4.46;74.08;101145.59;5085457;28;20262;-75
2022/03/26 05:36:37;;;;;;;46.30;21.73;;;;;;;4.98;72.20;101146.91;5087764;28;20544;-74
2022/03/26 05:39:02;;;;;;;49.97;22.42;;;;;;;5.22;70.52;101147.25;5087165;28;20036;-75
2022/03/26 05:41:28;;;;;;;41.15;21.92;;;;;;;5.66;68.65;101160.25;5083936;28;20028;-75
2022/03/26 05:43:53;;;;;;;37.45;18.88;;;;;;;6.06;67.17;101156.81;5080884;28;20037;-74
2022/03/26 05:46:19;;;;;;;36.78;17.85;;;;;;;6.22;66.53;101154.03;5081230;28;20311;-74
2022/03/26 05:48:45;;;;;;;34.28;16.88;;;;;;;6.21;66.33;101149.72;5085492;28;20082;-74
2022/03/26 05:51:11;;;;;;;36.05;17.30;;;;;;;6.12;66.72;101160.00;5085470;28;20368;-74
2022/03/26 05:53:36;;;;;;;34.20;17.30;;;;;;;6.21;66.62;101162.03;5081559;28;20028;-74
2022/03/26 05:56:02;;;;;;;35.83;18.67;;;;;;;6.20;67.72;101157.72;5092324;28;20020;-74
2022/03/26 05:58:27;;;;;;;44.60;19.35;;;;;;;6.58;66.54;101160.47;5084041;28;20075;-74
2022/03/26 06:00:53;;;;;;;37.47;19.25;;;;;;;7.02;64.80;101160.97;5084554;28;20028;-75
2022/03/26 06:03:19;;;;;;;37.42;17.75;;;;;;;7.11;63.03;101151.59;5089143;28;20055;-75
2022/03/26 06:05:46;;;;;;;39.03;17.90;;;;;;;7.29;62.44;101154.78;5100778;28;20045;-75
2022/03/26 06:08:11;;;;;;;36.72;19.05;;;;;;;7.84;61.51;101170.16;5098156;28;20073;-75
2022/03/26 06:10:37;;;;;;;34.75;17.65;;;;;;;8.11;59.90;101158.56;5101105;28;20028;-75
2022/03/26 06:13:02;;;;;;;35.92;17.67;;;;;;;8.31;59.07;101168.50;5097472;28;20059;-75
2022/03/26 06:15:28;;;;;;;37.72;16.77;;;;;;;8.62;58.01;101167.16;5088441;28;20056;-75
2022/03/26 06:17:53;;;;;;;33.70;16.55;;;;;;;9.02;56.41;101174.69;5097382;28;20035;-75
2022/03/26 06:20:19;;;;;;;33.05;16.85;;;;;;;9.46;54.75;101173.94;5100995;28;20300;-75
2022/03/26 06:22:45;;;;;;;27.15;16.48;;;;;;;9.54;53.86;101177.66;5087674;28;20095;-75
2022/03/26 06:25:10;;;;;;;33.80;17.13;;;;;;;10.21;52.36;101184.69;5086624;28;20031;-75
2022/03/26 06:27:36;;;;;;;33.65;17.00;;;;;;;10.54;51.45;101183.75;5083496;28;20040;-75
2022/03/26 06:30:02;;;;;;;35.40;16.90;;;;;;;11.12;50.00;101179.72;5087718;28;20032;-76
2022/03/26 06:32:28;;;;;;;32.65;17.40;;;;;;;11.57;47.66;101183.88;5089125;28;20032;-76
2022/03/26 06:34:53;;;;;;;34.50;17.42;;;;;;;11.90;46.55;101185.41;5087559;28;20311;-74
2022/03/26 06:37:21;;;;;;;31.20;17.63;;;;;;;11.82;47.24;101192.22;5090976;28;20032;-75
2022/03/26 06:39:46;;;;;;;33.65;16.50;;;;;;;11.83;46.08;101169.19;5088030;28;20066;-75
2022/03/26 06:42:12;;;;;;;36.53;17.50;;;;;;;11.53;46.54;101183.28;5089056;28;20036;-75
2022/03/26 06:44:37;;;;;;;32.70;17.60;;;;;;;11.84;46.04;101184.13;5087093;28;20020;-75
2022/03/26 06:47:04;;;;;;;32.10;16.95;;;;;;;11.88;45.37;101188.19;5089505;28;20031;-75
2022/03/26 06:49:31;;;;;;;34.15;18.27;;;;;;;12.05;45.93;101190.19;5084360;28;20029;-76
2022/03/26 06:51:57;;;;;;;32.08;16.45;;;;;;;12.16;45.81;101199.84;5086749;28;20196;-76
2022/03/26 06:54:22;;;;;;;29.35;16.40;;;;;;;12.58;44.24;101183.72;5085609;28;20031;-76
2022/03/26 06:56:48;;;;;;;31.20;16.60;;;;;;;13.30;42.87;101186.72;5086013;28;20122;-76
2022/03/26 06:59:13;;;;;;;41.08;17.67;;;;;;;13.68;41.08;101183.09;5084503;28;20025;-76
2022/03/26 07:01:39;;;;;;;92.07;31.30;;;;;;;13.87;40.25;101184.81;5085758;28;20062;-76
2022/03/26 07:04:04;;;;;;;31.00;16.92;;;;;;;14.09;40.56;101188.91;5084757;28;20028;-76
2022/03/26 07:06:30;;;;;;;34.15;16.75;;;;;;;13.86;40.67;101183.16;5085732;28;20029;-76
2022/03/26 07:08:55;;;;;;;28.52;16.13;;;;;;;13.49;41.68;101177.81;5085715;28;20049;-75
2022/03/26 07:11:21;;;;;;;31.98;15.52;;;;;;;13.65;41.38;101196.69;5085852;28;20035;-76
2022/03/26 07:13:47;;;;;;;32.10;17.45;;;;;;;13.63;40.88;101190.69;5085561;28;20040;-76
2022/03/26 07:16:13;;;;;;;30.83;16.75;;;;;;;13.62;41.70;101193.50;5085706;28;20028;-75
2022/03/26 07:18:38;;;;;;;47.50;16.05;;;;;;;13.92;41.45;101198.53;5084064;28;20036;-75
2022/03/26 07:21:04;;;;;;;34.42;17.45;;;;;;;14.49;40.25;101187.69;5085433;28;20058;-75
2022/03/26 07:23:30;;;;;;;28.05;16.67;;;;;;;14.76;40.00;101194.78;5085496;28;20245;-77
2022/03/26 07:25:55;;;;;;;40.85;17.67;;;;;;;15.19;38.98;101189.44;5084255;28;20028;-77
2022/03/26 07:28:21;;;;;;;30.98;17.05;;;;;;;15.54;37.79;101185.81;5084175;28;20257;-75
2022/03/26 07:30:46;;;;;;;30.58;16.77;;;;;;;15.95;36.94;101183.38;5085320;28;20033;-75
2022/03/26 07:33:12;;;;;;;28.90;17.05;;;;;;;15.60;37.82;101192.38;5085540;28;20081;-74
2022/03/26 07:35:37;;;;;;;36.08;17.65;;;;;;;15.52;37.87;101187.78;5084958;28;20020;-75
2022/03/26 07:38:03;;;;;;;30.77;17.05;;;;;;;15.64;37.73;101191.09;5104424;28;20051;-75
2022/03/26 07:40:29;;;;;;;29.30;17.02;;;;;;;15.79;37.00;101197.50;5103600;28;20048;-75
2022/03/26 07:42:54;;;;;;;30.15;17.10;;;;;;;15.16;38.52;101187.09;5104571;28;20043;-75
2022/03/26 07:45:20;;;;;;;35.97;17.35;;;;;;;14.66;38.99;101198.38;5094878;28;20028;-75
2022/03/26 07:47:46;;;;;;;28.73;17.05;;;;;;;15.00;38.80;101177.13;5086637;28;20039;-75
2022/03/26 07:50:11;;;;;;;38.22;18.83;;;;;;;15.44;38.16;101185.09;5088639;28;20036;-74
2022/03/26 07:52:38;;;;;;;35.13;17.88;;;;;;;15.85;37.65;101167.47;5087271;28;20323;-75
2022/03/26 07:55:05;;;;;;;35.50;18.55;;;;;;;16.18;36.07;101187.09;5095075;28;20036;-75
2022/03/26 07:57:30;;;;;;;33.05;18.00;;;;;;;16.80;35.05;101181.38;5090907;28;20027;-75
2022/03/26 07:59:56;;;;;;;36.25;18.85;;;;;;;16.51;35.30;101179.16;5084036;28;20035;-75
2022/03/26 08:02:21;;;;;;;34.00;18.10;;;;;;;15.79;37.23;101188.66;5083807;28;20044;-75
2022/03/26 08:04:47;;;;;;;33.50;18.05;;;;;;;15.64;37.02;101170.56;5084877;28;20067;-75
2022/03/26 08:07:13;;;;;;;35.70;18.17;;;;;;;15.93;36.30;101172.00;5103956;28;20210;-75
2022/03/26 08:09:38;;;;;;;30.73;17.13;;;;;;;16.45;35.21;101179.81;5100651;28;20040;-75
2022/03/26 08:12:04;;;;;;;32.28;16.88;;;;;;;16.21;35.62;101177.94;5092909;28;20107;-75
2022/03/26 08:14:30;;;;;;;34.55;17.35;;;;;;;16.44;35.07;101149.56;5086060;28;20322;-76
2022/03/26 08:16:56;;;;;;;32.40;16.58;;;;;;;17.11;33.81;101163.63;5085708;28;20021;-77
2022/03/26 08:19:21;;;;;;;29.02;16.90;;;;;;;17.40;33.64;101159.56;5082738;28;20074;-75
2022/03/26 08:21:47;;;;;;;34.13;17.15;;;;;;;17.50;33.64;101161.03;5088335;28;20047;-75
2022/03/26 08:24:12;;;;;;;27.23;16.55;;;;;;;16.75;35.10;101160.50;5091081;28;20027;-75
2022/03/26 08:26:38;;;;;;;30.00;15.88;;;;;;;15.72;36.46;101159.09;5088421;28;20338;-75
2022/03/26 08:29:04;;;;;;;37.85;16.15;;;;;;;15.29;36.42;101168.81;5088136;28;20032;-74
2022/03/26 08:31:31;;;;;;;31.52;15.90;;;;;;;15.55;36.21;101150.09;5089128;28;20031;-76
2022/03/26 08:33:57;;;;;;;34.17;16.13;;;;;;;15.84;35.64;101152.44;5089067;28;20115;-76
2022/03/26 08:36:23;;;;;;;51.13;19.27;;;;;;;16.11;35.20;101147.84;5085716;28;20314;-76
2022/03/26 08:38:49;;;;;;;42.75;16.83;;;;;;;16.35;34.79;101155.06;5084582;28;20035;-75
2022/03/26 08:41:19;;;;;;;29.30;14.10;;;;;;;16.68;34.47;101150.63;5089165;28;20044;-75
2022/03/26 08:43:46;;;;;;;63.15;21.08;;;;;;;16.34;34.13;101140.88;5085384;28;20032;-76
2022/03/26 08:46:11;;;;;;;34.20;15.32;;;;;;;16.43;33.33;101139.03;5089588;28;20334;-76
2022/03/26 08:48:37;;;;;;;53.88;18.20;;;;;;;16.75;33.34;101139.09;5086548;28;20036;-75
2022/03/26 08:51:03;;;;;;;33.72;15.95;;;;;;;17.10;33.09;101142.38;5083483;28;20036;-76
2022/03/26 08:53:28;;;;;;;31.92;15.27;;;;;;;17.24;32.84;101134.50;5087401;28;20303;-74
2022/03/26 08:55:55;;;;;;;29.50;15.52;;;;;;;17.33;32.50;101123.75;5083072;28;20028;-75
2022/03/26 08:58:20;;;;;;;35.45;16.38;;;;;;;17.44;32.09;101115.34;5095539;28;20036;-74
2022/03/26 09:00:51;;;;;;;30.17;15.20;;;;;;;17.59;32.02;101105.56;5101922;28;20333;-74
2022/03/26 09:03:19;;;;;;;29.58;14.63;;;;;;;17.43;31.55;101122.56;5089125;28;20040;-75
2022/03/26 09:05:52;;;;;;;26.88;14.35;;;;;;;17.11;31.64;101106.59;5085437;28;20084;-73
2022/03/26 09:08:18;;;;;;;27.77;14.98;;;;;;;16.84;33.01;101113.19;5089020;28;20032;-75
2022/03/26 09:10:44;;;;;;;27.55;14.82;;;;;;;17.15;33.53;101107.91;5083944;28;20346;-77
2022/03/26 09:13:10;;;;;;;27.73;14.60;;;;;;;17.33;32.44;101113.06;5085651;28;20054;-73
2022/03/26 09:15:36;;;;;;;26.58;14.38;;;;;;;17.61;31.27;101092.84;5083565;28;20291;-73
2022/03/26 09:18:02;;;;;;;36.25;15.98;;;;;;;17.29;31.64;101095.66;5083026;28;20048;-75
2022/03/26 09:20:27;;;;;;;38.25;17.48;;;;;;;17.34;31.54;101094.13;5083053;28;20023;-75
2022/03/26 09:22:53;;;;;;;30.42;15.80;;;;;;;17.45;31.17;101098.28;5083145;28;20031;-75
2022/03/26 09:25:20;;;;;;;30.92;14.85;;;;;;;16.90;31.59;101067.00;5083078;28;20060;-75
2022/03/26 09:27:46;;;;;;;71.13;22.48;;;;;;;16.90;32.17;101091.09;5102657;28;20035;-73
2022/03/26 09:30:12;;;;;;;27.52;14.70;;;;;;;16.94;31.80;101081.72;5102369;28;20099;-75
2022/03/26 09:32:38;;;;;;;33.55;15.18;;;;;;;16.72;31.32;101048.50;5101452;28;20020;-74
2022/03/26 09:35:04;;;;;;;34.08;15.32;;;;;;;16.74;32.10;101075.91;5102645;28;20225;-74
2022/03/26 09:37:30;;;;;;;29.80;15.23;;;;;;;17.18;31.64;101086.16;5102393;28;20032;-74
2022/03/26 09:39:55;;;;;;;30.30;14.38;;;;;;;17.22;31.25;101087.50;5102551;28;20058;-74
2022/03/26 09:42:23;;;;;;;33.45;15.40;;;;;;;17.23;31.54;101076.59;5102592;28;20310;-75
2022/03/26 09:44:51;;;;;;;37.97;14.45;;;;;;;16.19;33.38;101043.63;5102150;28;20334;-75
2022/03/26 09:47:17;;;;;;;29.23;14.30;;;;;;;16.11;33.66;101065.00;5102234;28;20030;-73
2022/03/26 09:49:43;;;;;;;44.75;18.88;;;;;;;16.40;33.44;101059.16;5102446;28;20036;-73
2022/03/26 09:52:09;;;;;;;30.58;15.48;;;;;;;16.25;32.89;101061.69;5102313;28;20047;-75
2022/03/26 09:54:36;;;;;;;35.25;15.10;;;;;;;16.38;32.24;101055.81;5102543;28;20031;-75
2022/03/26 09:57:03;;;;;;;33.30;16.05;;;;;;;16.11;32.69;101027.59;5101163;28;20023;-74
2022/03/26 09:59:28;;;;;;;26.90;14.05;;;;;;;16.24;32.76;101043.97;5101822;28;20099;-75
2022/03/26 10:01:54;;;;;;;21.80;13.27;;;;;;;15.98;32.43;101043.28;5102188;28;20333;-75
2022/03/26 10:04:21;;;;;;;25.05;13.73;;;;;;;16.17;31.41;101041.13;5101835;28;20087;-75
2022/03/26 10:07:00;;;;;;;26.38;15.00;;;;;;;16.04;32.38;101029.28;5102047;28;20073;-74
2022/03/26 10:09:26;;;;;;;31.45;14.43;;;;;;;16.44;30.65;101036.44;5086770;28;20038;-75
2022/03/26 10:12:05;;;;;;;26.30;13.63;;;;;;;16.34;31.41;101014.41;5085322;28;20040;-73
2022/03/26 10:14:40;;;;;;;27.25;14.15;;;;;;;16.63;31.16;101033.41;5081318;28;20036;-75
2022/03/26 10:17:17;;;;;;;26.88;13.05;;;;;;;16.71;31.15;101022.75;5095252;28;20055;-76
2022/03/26 10:19:55;;;;;;;27.52;13.05;;;;;;;16.75;30.92;101021.41;5101069;28;20035;-75
2022/03/26 10:22:29;;;;;;;34.17;15.57;;;;;;;16.69;30.29;101026.59;5083462;28;20028;-75
2022/03/26 10:24:57;;;;;;;28.75;13.98;;;;;;;16.46;31.03;101021.91;5080047;28;20229;-74
2022/03/26 10:27:23;;;;;;;22.35;12.82;;;;;;;16.38;31.38;101021.06;5084945;28;20036;-75
2022/03/26 10:29:59;;;;;;;25.40;13.48;;;;;;;16.34;31.55;101011.72;5095445;28;20051;-73
2022/03/26 10:32:45;;;;;;;25.58;13.57;;;;;;;16.23;31.54;100997.69;5085943;28;20036;-76
2022/03/26 10:35:17;;;;;;;27.38;13.32;;;;;;;16.22;31.93;101003.22;5085878;28;20060;-74
2022/03/26 10:37:56;;;;;;;27.35;13.95;;;;;;;16.44;30.44;100994.50;5084754;28;20020;-75
2022/03/26 10:40:33;;;;;;;22.13;12.93;;;;;;;16.39;31.61;100988.00;5086989;28;20032;-75
2022/03/26 10:43:14;;;;;;;22.73;12.13;;;;;;;16.39;30.44;100988.84;5084156;28;20329;-76
2022/03/26 10:45:50;;;;;;;27.08;12.40;;;;;;;16.46;30.45;100988.97;5088624;28;20020;-74
2022/03/26 10:48:23;;;;;;;29.00;12.25;;;;;;;16.73;30.19;100983.31;5083165;28;20121;-75
2022/03/26 10:50:58;;;;;;;29.55;12.70;;;;;;;16.51;30.69;100974.09;5087985;28;20017;-75
2022/03/26 10:53:39;;;;;;;33.10;12.27;;;;;;;16.52;29.24;100967.75;5085680;28;20040;-75
2022/03/26 10:56:08;;;;;;;36.85;12.95;;;;;;;16.40;28.28;100971.78;5085643;28;20044;-77
2022/03/26 10:58:34;;;;;;;22.02;11.13;;;;;;;16.35;28.20;100966.13;5088705;28;20356;-73
2022/03/26 11:01:00;;;;;;;22.17;11.15;;;;;;;16.35;27.43;100967.97;5086074;28;20407;-73
2022/03/26 11:03:26;;;;;;;19.38;10.05;;;;;;;16.22;26.36;100961.28;5088172;28;20033;-75
2022/03/26 11:05:54;;;;;;;22.48;11.35;;;;;;;16.05;27.10;100954.28;5084197;28;20368;-76
2022/03/26 11:08:20;;;;;;;26.10;11.18;;;;;;;16.35;26.87;100949.25;5087101;28;20073;-75
2022/03/26 11:10:46;;;;;;;18.10;9.82;;;;;;;16.66;26.75;100942.19;5084333;28;20023;-74
2022/03/26 11:13:12;;;;;;;19.67;9.52;;;;;;;16.64;26.68;100946.00;5083713;28;20095;-76